ADDS METAR Data INFO
IDs: Format: Raw Decoded Include TAF

Data at: 0315 UTC 22 Apr 2018

K0E0 220255Z AUTO 17005KT 10SM CLR 10/M03 A3017 RMK AO2 T00951032
K0E0 220235Z AUTO 20003KT 10SM SCT095 10/M04 A3016 RMK AO2 T00951039
K0E0 220215Z AUTO 20006KT 10SM CLR 11/M03 A3015 RMK AO2 T01101035
K0E0 220155Z AUTO 20006KT 10SM CLR 13/M03 A3014 RMK AO2 T01261031
K0E0 220135Z AUTO 20006KT 10SM CLR 15/M03 A3014 RMK AO2 T01461027
K0E0 220115Z AUTO 21006KT 10SM CLR 16/M02 A3013 RMK AO2 T01611025
K0E0 220055Z AUTO 24009KT 10SM CLR 17/M03 A3013 RMK AO2 T01701026
K0E0 220035Z AUTO 25008KT 10SM CLR 17/M03 A3013 RMK AO2 T01731027
K0E0 220015Z AUTO 24010G20KT 10SM SCT085 18/M03 A3013 RMK AO2 T01751028
K0E0 212355Z AUTO 28008G16KT 10SM SCT085 18/M03 A3013 RMK AO2 T01781029 10183 20124
K0E0 212335Z AUTO 28017G21KT 10SM SCT080 18/M03 A3013 RMK AO2 T01781032
K0E0 212315Z AUTO 26018G22KT 10SM BKN085 18/M03 A3012 RMK AO2 T01821031
K0E0 212255Z AUTO 29013G18KT 10SM BKN085 18/M03 A3012 RMK AO2 T01771030
K0E0 212235Z AUTO 26007G19KT 230V300 10SM SCT075 18/M03 A3011 RMK AO2 T01831027
K0E0 212215Z AUTO 29012G17KT 10SM SCT075 18/M03 A3011 RMK AO2 T01751029
K0E0 212155Z AUTO 26008KT 10SM SCT075 17/M03 A3010 RMK AO2 T01721028
K0E0 212135Z AUTO 33007KT 10SM CLR 17/M05 A3010 RMK AO2 T01691050
K0E0 212115Z AUTO 32013G18KT 10SM CLR 17/M05 A3010 RMK AO2 T01741050
K0E0 212055Z AUTO 34010KT 10SM CLR 16/M04 A3011 RMK AO2 T01641044
K0E0 212035Z AUTO 35006G18KT 10SM CLR 16/M04 A3011 RMK AO2 T01641039
K0E0 212015Z AUTO 30011G17KT 10SM CLR 16/M04 A3011 RMK AO2 T01641042
K0E0 211955Z AUTO 32013KT 10SM CLR 16/M04 A3011 RMK AO2 T01591038
K0E0 211935Z AUTO 01003G19KT 10SM SCT065 15/M04 A3011 RMK AO2 T01531038
K0E0 211915Z AUTO 28012G18KT 10SM SCT065 15/M03 A3012 RMK AO2 T01541032
K0E0 211855Z AUTO 30009G16KT 10SM CLR 15/M03 A3012 RMK AO2 T01451030
K0E0 211835Z AUTO 32009G16KT 290V350 10SM CLR 14/M02 A3013 RMK AO2 T01401025
K0E0 211815Z AUTO 29006G09KT 10SM SCT049 13/M03 A3013 RMK AO2 T01261027
K0E0 211755Z AUTO 31012G18KT 10SM SCT049 13/M03 A3014 RMK AO2 T01271026 10130 20022
K0E0 211735Z AUTO 34008G17KT 10SM SCT049 12/M03 A3014 RMK AO2 T01231029
K0E0 211715Z AUTO 33012G24KT 10SM SCT047 13/M03 A3014 RMK AO2 T01261026
K0E0 211655Z AUTO 34016G21KT 10SM SCT047 13/M02 A3014 RMK AO2 T01271021
K0E0 211635Z AUTO 34016G23KT 10SM SCT043 12/M02 A3013 RMK AO2 T01161021
K0E0 211615Z AUTO 33016G20KT 10SM CLR 11/M02 A3012 RMK AO2 T01061017
K0E0 211555Z AUTO 31017G22KT 10SM BKN050 11/M01 A3012 RMK AO2 T01061015
K0E0 211535Z AUTO 31015G22KT 10SM OVC050 09/M01 A3013 RMK AO2 T00881013
K0E0 211515Z AUTO 31019G24KT 10SM OVC050 08/M02 A3012 RMK AO2 T00801020
K0E0 211455Z AUTO 30012G15KT 10SM SCT049 OVC060 07/M02 A3013 RMK AO2 T00731023
K0E0 211435Z AUTO 30012G19KT 10SM VCTS SCT060 07/M02 A3012 RMK AO2 LTG DSNT E T00681023
K0E0 211415Z AUTO 31012G22KT 10SM CLR 06/M02 A3011 RMK AO2 LTG DSNT E T00601022
K0E0 211355Z AUTO 29010KT 10SM CLR 06/M02 A3011 RMK AO2 T00581017
K0E0 211335Z AUTO 27005KT 10SM CLR 06/M01 A3011 RMK AO2 T00561015
K0E0 211315Z AUTO 00000KT 10SM SCT038 SCT055 05/M01 A3010 RMK AO2 T00481013
K0E0 211255Z AUTO 00000KT 10SM SCT040 SCT055 04/M01 A3010 RMK AO2 T00361012
K0E0 211235Z AUTO 15006KT 10SM CLR 02/M01 A3010 RMK AO2 T00231015
K0E0 211215Z AUTO 18003KT 10SM SCT055 03/M01 A3009 RMK AO2 T00311014
K0E0 211155Z AUTO 26009KT 10SM CLR 03/M01 A3008 RMK AO2 T00301013 10054 20023
K0E0 211135Z AUTO 27006KT 10SM CLR 03/M01 A3007 RMK AO2 T00311014
K0E0 211115Z AUTO 26007KT 10SM CLR 03/M02 A3007 RMK AO2 T00281016
K0E0 211055Z AUTO 27009KT 10SM CLR 04/M02 A3007 RMK AO2 T00381025
K0E0 211035Z AUTO 29016G21KT 10SM CLR 04/M02 A3005 RMK AO2 T00381025
K0E0 211015Z AUTO 29008KT 10SM CLR 03/M02 A3004 RMK AO2 T00321025
K0E0 210955Z AUTO 29008KT 10SM CLR 03/M02 A3003 RMK AO2 T00331021
K0E0 210935Z AUTO 32003KT 10SM CLR 03/M02 A3003 RMK AO2 T00291018
K0E0 210915Z AUTO 30010KT 10SM CLR 04/M01 A3004 RMK AO2 T00351010
K0E0 210855Z AUTO 30013KT 10SM CLR 04/00 A3004 RMK AO2 T00361005
K0E0 210835Z AUTO 29011KT 10SM CLR 04/00 A3004 RMK AO2 T00351003
K0E0 210815Z AUTO 29010G14KT 10SM CLR 03/00 A3004 RMK AO2 T00311001
K0E0 210755Z AUTO 28008KT 10SM CLR 04/00 A3004 RMK AO2 T00370000
K0E0 210735Z AUTO 28007KT 10SM CLR 04/00 A3005 RMK AO2 T00390000
K0E0 210715Z AUTO 28005KT 10SM SCT100 04/01 A3007 RMK AO2 T00440005
K0E0 210655Z AUTO 30009KT 10SM SCT070 OVC095 05/01 A3007 RMK AO2 LTG DSNT E T00510010
K0E0 210635Z AUTO 30009KT 10SM SCT070 OVC085 05/01 A3007 RMK AO2 T00540010
K0E0 210615Z AUTO 30010KT 10SM SCT070 BKN095 OVC110 05/01 A3008 RMK AO2 T00500009
K0E0 210555Z AUTO 30012KT 10SM BKN095 OVC110 06/01 A3008 RMK AO2 T00550006 10135 20045 401670045
K0E0 210535Z AUTO 30014G20KT 10SM SCT085 BKN110 06/00 A3008 RMK AO2 T00610000
K0E0 210515Z AUTO 31008G11KT 10SM SCT120 08/M03 A3008 RMK AO2 T00751027
K0E0 210455Z AUTO 32009KT 10SM SCT120 07/M03 A3007 RMK AO2 T00701030
K0E0 210435Z AUTO 29008KT 10SM CLR 05/M06 A3007 RMK AO2 T00521063
K0E0 210415Z AUTO 32009KT 10SM CLR 05/M07 A3005 RMK AO2 T00501073
K0E0 210355Z AUTO 33006KT 10SM CLR 05/M09 A3005 RMK AO2 T00461088
K0E0 210335Z AUTO 02004KT 10SM CLR 08/M08 A3004 RMK AO2 T00771082
K0E0 210315Z AUTO 00000KT 10SM SCT065 SCT080 08/M08 A3004 RMK AO2 T00831079
K0E0 210255Z AUTO 33003KT 10SM SCT055 BKN070 OVC085 10/M07 A3004 RMK AO2 T01001075
K0E0 210235Z AUTO 31005G19KT 10SM SCT060 BKN075 OVC110 10/M08 A3002 RMK AO2 T00991078
K0E0 210215Z AUTO 32009KT 10SM SCT075 SCT085 09/M09 A3001 RMK AO2 T00881095
K0E0 210155Z AUTO 32007KT 10SM SCT085 09/M10 A3000 RMK AO2 T00901100
K0E0 210135Z AUTO 31008KT 10SM CLR 10/M10 A2999 RMK AO2 T01001105
K0E0 210115Z AUTO 32007KT 10SM SCT090 11/M11 A2998 RMK AO2 T01081108
K0E0 210055Z AUTO 29010KT 10SM BKN090 13/M11 A2996 RMK AO2 T01261111
K0E0 210035Z AUTO 31014G21KT 10SM BKN100 13/M12 A2996 RMK AO2 T01261124
K0E0 210015Z AUTO 26012G30KT 10SM BKN100 13/M12 A2996 RMK AO2 T01331125
K0E0 202355Z AUTO 24014G25KT 10SM SCT090 BKN110 14/M14 A2996 RMK AO2 T01351140 10167 20129
K0E0 202335Z AUTO 31012G16KT 10SM SCT075 SCT090 13/M14 A2994 RMK AO2 T01311136
K0E0 202315Z AUTO 27017G21KT 10SM SCT120 14/M15 A2994 RMK AO2 T01381150
K0E0 202255Z AUTO 25012G25KT 10SM SCT100 SCT120 15/M15 A2993 RMK AO2 T01531150
K0E0 202235Z AUTO 28016G25KT 10SM CLR 16/M15 A2993 RMK AO2 T01591153
K0E0 202215Z AUTO 24022G30KT 10SM CLR 16/M16 A2992 RMK AO2 T01621160
K0E0 202155Z AUTO 23022G27KT 10SM CLR 16/M17 A2991 RMK AO2 T01561173
K0E0 202135Z AUTO 25017G30KT 10SM CLR 16/M17 A2992 RMK AO2 T01601168
K0E0 202115Z AUTO 27019G32KT 10SM CLR 17/M16 A2992 RMK AO2 T01651159
K0E0 202055Z AUTO 29021G26KT 10SM SCT120 16/M15 A2992 RMK AO2 LTG DSNT NE T01571152
K0E0 202035Z AUTO 28015G28KT 10SM CLR 16/M15 A2993 RMK AO2 LTG DSNT NE AND E T01571148
K0E0 202015Z AUTO 26013G19KT 10SM SCT120 15/M15 A2992 RMK AO2 LTG DSNT E T01511147
K0E0 201955Z AUTO 23014G22KT 10SM SCT110 15/M15 A2992 RMK AO2 T01471146
K0E0 201935Z AUTO 27011G19KT 10SM CLR 15/M14 A2993 RMK AO2 LTG DSNT NE T01481140
K0E0 201915Z AUTO 27015G25KT 10SM CLR 15/M11 A2993 RMK AO2 T01501110
K0E0 201855Z AUTO 26017G25KT 10SM CLR 17/M10 A2993 RMK AO2 LTG DSNT NE T01651097
K0E0 201835Z AUTO 25019G29KT 10SM CLR 16/M09 A2993 RMK AO2 LTG DSNT NE T01611091
K0E0 201815Z AUTO 25016G28KT 10SM CLR 16/M09 A2993 RMK AO2 T01571091
K0E0 201755Z AUTO 25018G25KT 10SM CLR 15/M09 A2994 RMK AO2 T01511094 10154 20075
K0E0 201735Z AUTO 25021G31KT 10SM SCT090 SCT110 15/M09 A2993 RMK AO2 T01471087
K0E0 201715Z AUTO 27016G22KT 10SM SCT090 13/M08 A2993 RMK AO2 T01331085
K0E0 201655Z AUTO 20003KT 10SM CLR 14/M07 A2992 RMK AO2 T01361069
K0E0 201635Z AUTO 00000KT 10SM CLR 14/M08 A2992 RMK AO2 LTG DSNT NE T01381076
K0E0 201615Z AUTO 24006KT 10SM SCT060 SCT070 13/M07 A2993 RMK AO2 LTG DSNT N T01331069
K0E0 201555Z AUTO 27007KT 10SM BKN050 BKN070 12/M06 A2994 RMK AO2 T01241063
K0E0 201535Z AUTO 21004KT 10SM OVC050 11/M04 A2995 RMK AO2 T01131042